Time;durP1;ratioP1;P1;durP2;ratioP2;P2;SDS_P1;SDS_P2;PMS_P1;PMS_P2;Temp;Humidity;BMP_temperature;BMP_pressure;BME280_temperature;BME280_humidity;BME280_pressure;Samples;Min_cycle;Max_cycle;Signal;HPM_P1;HPM_P2
2023/01/03 00:03:37;;;;;;;22.15;11.95;;;;;;;;;;12841680;19;20770;-65
2023/01/03 00:07:55;;;;;;;25.33;12.57;;;;;;;;;;12840143;19;20036;-65
2023/01/03 00:12:23;;;;;;;26.80;15.10;;;;;;;;;;12839660;19;20385;-65
2023/01/03 00:16:51;;;;;;;23.92;12.88;;;;;;;;;;12837977;19;20342;-65
2023/01/03 00:21:09;;;;;;;25.05;13.90;;;;;;;;;;12837990;19;20453;-66
2023/01/03 00:25:28;;;;;;;23.38;13.00;;;;;;;;;;12840249;19;20469;-65
2023/01/03 00:29:47;;;;;;;28.55;14.23;;;;;;;;;;12841021;19;20316;-66
2023/01/03 00:34:05;;;;;;;22.80;13.02;;;;;;;;;;12839236;19;20586;-65
2023/01/03 00:38:23;;;;;;;26.55;13.13;;;;;;;;;;12836652;19;20383;-65
2023/01/03 00:47:17;;;;;;;27.92;13.38;;;;;;;;;;12838204;19;20928;-65
2023/01/03 00:51:37;;;;;;;20.77;12.50;;;;;;;;;;12839687;19;20369;-65
2023/01/03 00:56:02;;;;;;;23.13;10.82;;;;;;;;;;12838839;19;20239;-65
2023/01/03 01:00:20;;;;;;;20.52;10.90;;;;;;;;;;12837760;19;20476;-65
2023/01/03 01:04:38;;;;;;;14.67;9.23;;;;;;;;;;12840214;19;20473;-65
2023/01/03 01:08:58;;;;;;;17.75;9.45;;;;;;;;;;12837462;19;20490;-67
2023/01/03 01:13:15;;;;;;;21.83;10.85;;;;;;;;;;12836000;19;20446;-66
2023/01/03 01:17:33;;;;;;;22.50;11.67;;;;;;;;;;12838657;19;20517;-65
2023/01/03 01:21:51;;;;;;;24.03;10.73;;;;;;;;;;12837005;19;20023;-66
2023/01/03 01:26:17;;;;;;;22.95;10.93;;;;;;;;;;12836717;19;20442;-65
2023/01/03 01:30:37;;;;;;;23.38;10.80;;;;;;;;;;12837184;19;20473;-65
2023/01/03 01:34:54;;;;;;;19.75;10.68;;;;;;;;;;12834640;19;20393;-66
2023/01/03 01:39:22;;;;;;;21.20;11.90;;;;;;;;;;12835451;19;20442;-65
2023/01/03 01:48:33;;;;;;;23.45;11.23;;;;;;;;;;12835271;19;20429;-66
2023/01/03 01:53:00;;;;;;;26.90;12.20;;;;;;;;;;12835263;19;20022;-66
2023/01/03 01:57:21;;;;;;;26.52;13.05;;;;;;;;;;12833057;19;20465;-65
2023/01/03 02:01:41;;;;;;;27.27;12.07;;;;;;;;;;12834721;19;20436;-65
2023/01/03 02:06:03;;;;;;;32.05;13.20;;;;;;;;;;12834832;19;20464;-66
2023/01/03 02:11:00;;;;;;;24.98;12.32;;;;;;;;;;12832915;19;20325;-65
2023/01/03 02:16:05;;;;;;;22.10;10.87;;;;;;;;;;12832931;19;20352;-64
2023/01/03 02:20:45;;;;;;;26.88;13.38;;;;;;;;;;12831990;19;20583;-66
2023/01/03 02:25:12;;;;;;;17.33;10.48;;;;;;;;;;12840673;19;20430;-65
2023/01/03 02:30:11;;;;;;;17.38;9.80;;;;;;;;;;12845760;19;20338;-65
2023/01/03 02:35:12;;;;;;;18.05;9.52;;;;;;;;;;12844837;19;20400;-64
2023/01/03 02:39:55;;;;;;;23.88;11.55;;;;;;;;;;12845300;19;20376;-64
2023/01/03 02:44:26;;;;;;;22.75;11.43;;;;;;;;;;12845295;19;20518;-65
2023/01/03 02:49:07;;;;;;;19.35;11.18;;;;;;;;;;12846196;19;20501;-65
2023/01/03 02:53:38;;;;;;;20.90;11.50;;;;;;;;;;12844553;19;20347;-64
2023/01/03 02:58:20;;;;;;;18.08;9.27;;;;;;;;;;12842510;19;20473;-64
2023/01/03 03:02:44;;;;;;;15.45;9.93;;;;;;;;;;12843259;19;20446;-64
2023/01/03 03:07:30;;;;;;;17.92;9.00;;;;;;;;;;12841050;19;20326;-66
2023/01/03 03:16:48;;;;;;;13.55;8.95;;;;;;;;;;12840024;19;20394;-65
2023/01/03 03:25:58;;;;;;;16.33;9.30;;;;;;;;;;12843223;19;20513;-65
2023/01/03 03:30:20;;;;;;;14.70;7.65;;;;;;;;;;12841266;19;20429;-67
2023/01/03 03:34:38;;;;;;;15.73;9.45;;;;;;;;;;12842574;19;20501;-64
2023/01/03 03:38:56;;;;;;;13.65;7.70;;;;;;;;;;12840770;19;20449;-64
2023/01/03 03:48:28;;;;;;;16.45;8.88;;;;;;;;;;12839947;19;20470;-64
2023/01/03 03:52:51;;;;;;;16.27;8.70;;;;;;;;;;12842494;19;20494;-64
2023/01/03 03:57:22;;;;;;;13.27;7.65;;;;;;;;;;12839456;19;20482;-64
2023/01/03 04:01:41;;;;;;;13.57;8.38;;;;;;;;;;12841809;19;20449;-65
2023/01/03 04:06:05;;;;;;;14.82;9.32;;;;;;;;;;12840792;19;20366;-64
2023/01/03 04:10:23;;;;;;;14.73;8.40;;;;;;;;;;12839155;19;20411;-65
2023/01/03 04:14:40;;;;;;;17.17;10.15;;;;;;;;;;12841213;19;20521;-65
2023/01/03 04:18:59;;;;;;;18.00;10.07;;;;;;;;;;12839713;19;20444;-66
2023/01/03 04:23:16;;;;;;;20.83;11.07;;;;;;;;;;12840281;19;20469;-65
2023/01/03 04:27:34;;;;;;;18.92;10.30;;;;;;;;;;12840857;19;20016;-65
2023/01/03 04:31:52;;;;;;;;;;;;;;;;;;12840513;19;20018;-69
2023/01/03 04:36:10;;;;;;;15.30;8.70;;;;;;;;;;12838738;19;19947;-66
2023/01/03 04:40:27;;;;;;;17.83;9.88;;;;;;;;;;12839382;19;20732;-65
2023/01/03 04:44:45;;;;;;;15.27;9.43;;;;;;;;;;12839145;19;20434;-65
2023/01/03 04:49:05;;;;;;;15.77;8.32;;;;;;;;;;12834873;19;20426;-65
2023/01/03 04:53:25;;;;;;;14.20;9.38;;;;;;;;;;12838622;19;20480;-65
2023/01/03 04:57:42;;;;;;;14.18;8.93;;;;;;;;;;12836895;19;20029;-66
2023/01/03 05:02:00;;;;;;;18.77;10.30;;;;;;;;;;12837703;19;20472;-66
2023/01/03 05:06:18;;;;;;;17.23;10.18;;;;;;;;;;12837582;19;20014;-65
2023/01/03 05:10:40;;;;;;;22.33;12.20;;;;;;;;;;12837641;19;20434;-64
2023/01/03 05:14:57;;;;;;;22.83;13.43;;;;;;;;;;12836034;19;20040;-65
2023/01/03 05:19:15;;;;;;;26.65;12.95;;;;;;;;;;12835742;19;20810;-65
2023/01/03 05:28:09;;;;;;;18.15;10.00;;;;;;;;;;12833221;19;20574;-65
2023/01/03 05:32:33;;;;;;;16.70;10.00;;;;;;;;;;12836362;19;20501;-64
2023/01/03 05:36:51;;;;;;;15.87;9.07;;;;;;;;;;12836366;19;20489;-64
2023/01/03 05:41:09;;;;;;;16.67;9.27;;;;;;;;;;12832562;19;20599;-66
2023/01/03 05:45:26;;;;;;;18.05;9.52;;;;;;;;;;12836001;19;20538;-65
2023/01/03 05:49:44;;;;;;;14.98;9.43;;;;;;;;;;12835929;19;20351;-65
2023/01/03 05:54:01;;;;;;;17.97;9.77;;;;;;;;;;12834698;19;20350;-65
2023/01/03 05:58:19;;;;;;;19.90;10.45;;;;;;;;;;12837971;19;20738;-65
2023/01/03 06:02:36;;;;;;;22.17;10.85;;;;;;;;;;12848002;19;20497;-65
2023/01/03 06:06:54;;;;;;;25.87;10.10;;;;;;;;;;12847013;19;20035;-67
2023/01/03 06:11:14;;;;;;;31.40;12.27;;;;;;;;;;12846407;19;20007;-64
2023/01/03 06:15:31;;;;;;;35.92;13.63;;;;;;;;;;12846876;19;20469;-65
2023/01/03 06:19:50;;;;;;;29.25;13.40;;;;;;;;;;12846046;19;20096;-65
2023/01/03 06:24:08;;;;;;;39.65;13.93;;;;;;;;;;12845313;19;20446;-66
2023/01/03 06:28:26;;;;;;;;;;;;;;;;;;12847809;19;20469;-65
2023/01/03 06:32:43;;;;;;;34.22;13.07;;;;;;;;;;12846618;19;20291;-66
2023/01/03 06:37:01;;;;;;;24.98;11.18;;;;;;;;;;12848626;19;20376;-67
2023/01/03 06:41:18;;;;;;;23.38;10.82;;;;;;;;;;12845311;19;20445;-65
2023/01/03 06:54:48;;;;;;;21.55;10.40;;;;;;;;;;12843636;19;20457;-65
2023/01/03 06:59:06;;;;;;;16.07;9.53;;;;;;;;;;12843457;19;20378;-66
2023/01/03 07:03:24;;;;;;;19.50;9.43;;;;;;;;;;12845085;19;20615;-64
2023/01/03 07:07:41;;;;;;;20.33;10.18;;;;;;;;;;12811276;19;20022;-65
2023/01/03 07:13:57;;;;;;;13.82;9.40;;;;;;;;;;12842026;19;20372;-65
2023/01/03 07:16:43;;;;;;;16.83;9.43;;;;;;;;;;12844775;19;20032;-64
2023/01/03 07:21:05;;;;;;;18.63;10.05;;;;;;;;;;12841262;19;20019;-65
2023/01/03 07:25:23;;;;;;;22.08;11.13;;;;;;;;;;12839214;19;20433;-65
2023/01/03 07:29:41;;;;;;;21.02;12.40;;;;;;;;;;12843390;19;20342;-65
2023/01/03 07:34:00;;;;;;;22.70;11.10;;;;;;;;;;12843259;19;20319;-66
2023/01/03 07:38:17;;;;;;;21.85;11.40;;;;;;;;;;12842051;19;20469;-65
2023/01/03 07:47:11;;;;;;;20.10;10.90;;;;;;;;;;12841358;19;20354;-65
2023/01/03 07:51:28;;;;;;;20.00;9.55;;;;;;;;;;12840184;19;20438;-65
2023/01/03 07:55:46;;;;;;;18.00;9.32;;;;;;;;;;12842867;19;20486;-65
2023/01/03 08:00:04;;;;;;;30.00;18.97;;;;;;;;;;12841062;19;20345;-66
2023/01/03 08:04:22;;;;;;;23.80;14.35;;;;;;;;;;12841194;19;20450;-66
2023/01/03 08:08:40;;;;;;;13.97;9.03;;;;;;;;;;12840870;19;20473;-65
2023/01/03 08:13:16;;;;;;;12.13;6.72;;;;;;;;;;12840824;19;20505;-66
2023/01/03 08:17:33;;;;;;;11.82;5.88;;;;;;;;;;12840952;19;20322;-66
2023/01/03 08:21:52;;;;;;;11.25;5.85;;;;;;;;;;12840589;19;20385;-65
2023/01/03 08:26:14;;;;;;;12.53;5.87;;;;;;;;;;12839150;19;20027;-66
2023/01/03 08:30:34;;;;;;;12.45;6.45;;;;;;;;;;12840101;19;20477;-65
2023/01/03 08:34:53;;;;;;;11.38;5.55;;;;;;;;;;12839016;19;20359;-65
2023/01/03 08:39:17;;;;;;;17.30;6.82;;;;;;;;;;12838577;19;20295;-65
2023/01/03 08:43:39;;;;;;;10.57;5.78;;;;;;;;;;12839747;19;20344;-64
2023/01/03 08:48:00;;;;;;;9.27;4.65;;;;;;;;;;12839415;19;20532;-66
2023/01/03 08:52:18;;;;;;;9.10;4.68;;;;;;;;;;12837620;19;20469;-65
2023/01/03 08:56:35;;;;;;;10.37;5.70;;;;;;;;;;12839633;19;20361;-65
2023/01/03 09:00:53;;;;;;;10.02;5.32;;;;;;;;;;12837993;19;20374;-65
2023/01/03 09:05:10;;;;;;;7.70;4.65;;;;;;;;;;12837598;19;20014;-65
2023/01/03 09:09:28;;;;;;;7.90;4.15;;;;;;;;;;12838591;19;20426;-65
2023/01/03 09:13:45;;;;;;;9.10;5.53;;;;;;;;;;12837588;19;20351;-65
2023/01/03 09:18:03;;;;;;;22.57;10.90;;;;;;;;;;12837265;19;20513;-66
2023/01/03 09:22:20;;;;;;;12.00;6.47;;;;;;;;;;12835353;19;20250;-65
2023/01/03 09:26:38;;;;;;;6.75;3.22;;;;;;;;;;12837044;19;20516;-65
2023/01/03 09:30:56;;;;;;;5.30;3.28;;;;;;;;;;12834946;19;20484;-64
2023/01/03 09:35:13;;;;;;;8.00;3.42;;;;;;;;;;12834177;19;20434;-65
2023/01/03 09:39:32;;;;;;;5.00;2.70;;;;;;;;;;12835092;19;20518;-65
2023/01/03 09:44:01;;;;;;;9.88;3.47;;;;;;;;;;12835126;19;20462;-66
2023/01/03 09:48:32;;;;;;;4.55;3.15;;;;;;;;;;12834796;19;20011;-65
2023/01/03 10:07:47;;;;;;;4.65;2.10;;;;;;;;;;12833943;19;20010;-65
2023/01/03 10:12:24;;;;;;;;;;;;;;;;;;12833240;19;20473;-64
2023/01/03 10:17:10;;;;;;;8.57;4.07;;;;;;;;;;12834995;19;20603;-65
2023/01/03 10:21:27;;;;;;;4.40;2.20;;;;;;;;;;12832693;19;20588;-66
2023/01/03 10:25:47;;;;;;;3.55;1.85;;;;;;;;;;12833882;19;20422;-66
2023/01/03 10:30:11;;;;;;;3.22;1.98;;;;;;;;;;12834885;19;20490;-66
2023/01/03 10:34:28;;;;;;;4.18;2.60;;;;;;;;;;12832981;19;20014;-65
2023/01/03 10:38:46;;;;;;;5.53;1.83;;;;;;;;;;12831801;19;20493;-68
2023/01/03 10:43:37;;;;;;;2.60;1.80;;;;;;;;;;12831271;19;20391;-65
2023/01/03 10:48:00;;;;;;;3.08;1.60;;;;;;;;;;12844589;19;20575;-65
2023/01/03 10:52:21;;;;;;;3.15;1.60;;;;;;;;;;12843917;19;20469;-65
2023/01/03 10:56:39;;;;;;;1.75;1.40;;;;;;;;;;12846205;19;20468;-65
2023/01/03 11:01:23;;;;;;;4.18;1.67;;;;;;;;;;12844790;19;20306;-65
2023/01/03 11:05:48;;;;;;;3.65;1.95;;;;;;;;;;12844697;19;20392;-67
2023/01/03 11:10:16;;;;;;;2.67;1.95;;;;;;;;;;12842837;19;20307;-65
2023/01/03 11:14:34;;;;;;;3.35;1.85;;;;;;;;;;12844690;19;20433;-65
2023/01/03 11:19:03;;;;;;;4.87;1.87;;;;;;;;;;12842294;19;20481;-66
2023/01/03 11:23:53;;;;;;;4.50;1.77;;;;;;;;;;12843679;19;20645;-65
2023/01/03 11:29:21;;;;;;;2.25;1.58;;;;;;;;;;12842092;19;20490;-65
2023/01/03 11:34:01;;;;;;;3.25;1.60;;;;;;;;;;12835586;19;20490;-65
2023/01/03 11:38:57;;;;;;;2.78;1.58;;;;;;;;;;12839650;19;20361;-65
2023/01/03 11:43:56;;;;;;;4.93;2.15;;;;;;;;;;12842422;19;20378;-65
2023/01/03 11:48:31;;;;;;;3.58;2.45;;;;;;;;;;12841802;19;20371;-65
2023/01/03 11:53:09;;;;;;;3.90;1.60;;;;;;;;;;12842051;19;20016;-64
2023/01/03 11:57:57;;;;;;;2.25;1.50;;;;;;;;;;12839134;19;20456;-64
2023/01/03 12:02:42;;;;;;;4.43;2.20;;;;;;;;;;12840367;19;20587;-65
2023/01/03 12:07:18;;;;;;;4.38;1.90;;;;;;;;;;12840480;19;20395;-66
2023/01/03 12:12:54;;;;;;;6.85;2.58;;;;;;;;;;12836807;19;20385;-65
2023/01/03 12:17:23;;;;;;;5.18;1.92;;;;;;;;;;12832711;19;20041;-65
2023/01/03 12:21:47;;;;;;;3.70;1.63;;;;;;;;;;12840904;19;20477;-65
2023/01/03 12:26:09;;;;;;;4.40;1.60;;;;;;;;;;12838351;19;20434;-65
2023/01/03 12:31:08;;;;;;;2.83;1.67;;;;;;;;;;12838560;19;20465;-65
2023/01/03 12:35:58;;;;;;;7.40;2.40;;;;;;;;;;12836046;19;20478;-65
2023/01/03 12:40:51;;;;;;;4.57;2.40;;;;;;;;;;12836173;19;20469;-65
2023/01/03 12:45:23;;;;;;;3.58;2.03;;;;;;;;;;12837122;19;20015;-65
2023/01/03 12:50:13;;;;;;;4.25;2.20;;;;;;;;;;12838418;19;20366;-65
2023/01/03 12:54:49;;;;;;;6.25;3.20;;;;;;;;;;12836470;19;20007;-65
2023/01/03 12:59:28;;;;;;;4.28;1.95;;;;;;;;;;12833817;19;20371;-65
2023/01/03 13:03:54;;;;;;;;;;;;;;;;;;12839046;19;20025;-65
2023/01/03 13:08:38;;;;;;;5.40;3.10;;;;;;;;;;12836593;19;20304;-65
2023/01/03 13:12:56;;;;;;;6.75;2.58;;;;;;;;;;12836684;19;20502;-65
2023/01/03 13:17:18;;;;;;;8.35;3.65;;;;;;;;;;12835052;19;20469;-66
2023/01/03 13:21:48;;;;;;;6.47;2.50;;;;;;;;;;12834738;19;20460;-66
2023/01/03 13:26:19;;;;;;;3.15;1.83;;;;;;;;;;12836566;19;20377;-64
2023/01/03 13:30:37;;;;;;;3.38;1.20;;;;;;;;;;12836434;19;20366;-64
2023/01/03 13:34:57;;;;;;;4.55;1.75;;;;;;;;;;12833762;19;20015;-66
2023/01/03 13:39:50;;;;;;;2.75;1.88;;;;;;;;;;12834962;19;20363;-65
2023/01/03 13:44:21;;;;;;;4.53;1.70;;;;;;;;;;12832051;19;20498;-68
2023/01/03 13:48:49;;;;;;;6.50;2.20;;;;;;;;;;12835120;19;20375;-66
2023/01/03 13:53:09;;;;;;;3.78;1.85;;;;;;;;;;12835041;19;20437;-67
2023/01/03 13:57:36;;;;;;;6.18;2.88;;;;;;;;;;12835349;19;20461;-64
2023/01/03 14:02:10;;;;;;;3.38;1.98;;;;;;;;;;12833869;19;20355;-66
2023/01/03 14:07:11;;;;;;;4.57;2.40;;;;;;;;;;12834279;19;20338;-65
2023/01/03 14:12:14;;;;;;;7.53;4.38;;;;;;;;;;12833916;19;20453;-65
2023/01/03 14:16:47;;;;;;;7.68;3.58;;;;;;;;;;12832203;19;20098;-65
2023/01/03 14:21:07;;;;;;;5.63;2.67;;;;;;;;;;12842144;19;20494;-65
2023/01/03 14:25:44;;;;;;;12.38;4.20;;;;;;;;;;12846402;19;20014;-65
2023/01/03 14:30:02;;;;;;;10.70;4.22;;;;;;;;;;12844069;19;20402;-70
2023/01/03 14:34:39;;;;;;;9.13;4.95;;;;;;;;;;12843453;19;20287;-66
2023/01/03 14:39:00;;;;;;;19.70;9.80;;;;;;;;;;12844530;19;20363;-65
2023/01/03 14:43:18;;;;;;;24.83;10.57;;;;;;;;;;12847899;19;20330;-66
2023/01/03 14:47:40;;;;;;;13.10;6.40;;;;;;;;;;12845978;19;20464;-66
2023/01/03 14:52:27;;;;;;;9.07;4.38;;;;;;;;;;12845296;19;20706;-65
2023/01/03 14:56:46;;;;;;;7.97;4.38;;;;;;;;;;12843771;19;20440;-65
2023/01/03 15:01:07;;;;;;;6.90;3.42;;;;;;;;;;12841007;19;20549;-65
2023/01/03 15:05:39;;;;;;;8.20;3.78;;;;;;;;;;12844916;19;20073;-66
2023/01/03 15:10:44;;;;;;;19.08;8.48;;;;;;;;;;12812097;19;20539;-65
2023/01/03 15:15:28;;;;;;;25.98;11.15;;;;;;;;;;12841177;19;20062;-66
2023/01/03 15:19:53;;;;;;;22.35;11.48;;;;;;;;;;12845163;19;20014;-65
2023/01/03 15:24:20;;;;;;;6.15;3.22;;;;;;;;;;12336470;19;10002136;-65
2023/01/03 15:28:53;;;;;;;6.13;3.35;;;;;;;;;;12841945;19;20647;-65
2023/01/03 15:33:31;;;;;;;14.63;6.60;;;;;;;;;;12839885;19;20514;-66
2023/01/03 15:37:54;;;;;;;17.38;9.27;;;;;;;;;;12844488;19;20522;-68
2023/01/03 15:47:07;;;;;;;37.88;16.45;;;;;;;;;;12842138;19;20318;-66
2023/01/03 15:51:24;;;;;;;19.98;10.93;;;;;;;;;;12841070;19;20409;-65
2023/01/03 15:55:42;;;;;;;32.50;17.47;;;;;;;;;;12842066;19;20368;-65
2023/01/03 16:00:04;;;;;;;44.70;22.20;;;;;;;;;;12841402;19;20579;-65
2023/01/03 16:04:24;;;;;;;77.80;29.20;;;;;;;;;;12842542;19;20501;-66
2023/01/03 16:08:42;;;;;;;68.40;26.63;;;;;;;;;;12841204;19;20367;-66
2023/01/03 16:13:00;;;;;;;87.68;32.28;;;;;;;;;;12840969;19;20020;-65
2023/01/03 16:17:23;;;;;;;84.30;30.63;;;;;;;;;;12840082;19;20074;-65
2023/01/03 16:21:43;;;;;;;83.68;31.67;;;;;;;;;;12839096;19;20498;-66
2023/01/03 16:26:21;;;;;;;54.65;24.60;;;;;;;;;;12839790;19;20486;-65
2023/01/03 16:30:38;;;;;;;52.28;23.58;;;;;;;;;;12839263;19;20298;-67
2023/01/03 16:34:59;;;;;;;46.13;18.30;;;;;;;;;;12840634;19;20362;-66
2023/01/03 16:39:25;;;;;;;40.47;17.73;;;;;;;;;;12839246;19;20421;-66
2023/01/03 16:43:43;;;;;;;42.40;18.38;;;;;;;;;;12839411;19;20432;-65
2023/01/03 16:48:01;;;;;;;36.55;16.77;;;;;;;;;;12838532;19;20311;-67
2023/01/03 16:52:25;;;;;;;33.88;16.02;;;;;;;;;;12838815;19;20477;-65
2023/01/03 16:56:44;;;;;;;23.48;13.48;;;;;;;;;;12838130;19;20490;-65
2023/01/03 17:01:02;;;;;;;24.27;12.00;;;;;;;;;;12836228;19;20482;-65
2023/01/03 17:05:21;;;;;;;24.02;12.10;;;;;;;;;;12836981;19;20465;-66
2023/01/03 17:09:39;;;;;;;28.85;14.40;;;;;;;;;;12835836;19;20473;-66
2023/01/03 17:14:02;;;;;;;29.50;14.90;;;;;;;;;;12838966;19;20477;-65
2023/01/03 17:18:30;;;;;;;25.83;11.98;;;;;;;;;;12835057;19;20438;-66
2023/01/03 17:22:55;;;;;;;23.50;10.77;;;;;;;;;;12834597;19;20498;-66
2023/01/03 17:27:24;;;;;;;23.23;11.68;;;;;;;;;;12834377;19;20019;-65
2023/01/03 17:31:49;;;;;;;50.95;20.10;;;;;;;;;;12837431;19;20498;-66
2023/01/03 17:36:26;;;;;;;96.50;31.08;;;;;;;;;;12836483;19;20343;-66
2023/01/03 17:40:47;;;;;;;65.57;24.95;;;;;;;;;;12835313;19;20081;-65
2023/01/03 17:49:45;;;;;;;52.20;23.55;;;;;;;;;;12835644;19;20491;-66
2023/01/03 17:54:03;;;;;;;53.60;22.40;;;;;;;;;;12838765;19;20434;-65
2023/01/03 17:58:31;;;;;;;64.78;26.30;;;;;;;;;;12848408;19;20363;-65
2023/01/03 18:02:49;;;;;;;65.90;26.15;;;;;;;;;;12846739;19;20010;-67
2023/01/03 18:07:08;;;;;;;;;;;;;;;;;;12847789;19;20494;-65
2023/01/03 18:11:26;;;;;;;52.35;21.90;;;;;;;;;;12845497;19;20302;-64
2023/01/03 18:15:43;;;;;;;20.43;12.17;;;;;;;;;;12847761;19;20481;-67
2023/01/03 18:20:01;;;;;;;17.02;9.73;;;;;;;;;;12846319;19;20494;-65
2023/01/03 18:24:26;;;;;;;18.77;10.90;;;;;;;;;;12847010;19;20014;-66
2023/01/03 18:28:45;;;;;;;25.45;11.57;;;;;;;;;;12844831;19;20445;-65
2023/01/03 18:33:02;;;;;;;24.45;12.80;;;;;;;;;;12849780;19;20335;-66
2023/01/03 18:37:23;;;;;;;36.28;17.30;;;;;;;;;;12846565;19;20381;-65
2023/01/03 18:41:42;;;;;;;34.42;15.50;;;;;;;;;;12765288;19;20537;-65
2023/01/03 18:45:59;;;;;;;21.05;10.25;;;;;;;;;;8938814;19;10002003;-65
2023/01/03 18:50:18;;;;;;;24.17;10.90;;;;;;;;;;12845985;19;20015;-65
2023/01/03 18:54:37;;;;;;;30.10;11.85;;;;;;;;;;12846324;19;20375;-66
2023/01/03 18:58:59;;;;;;;31.73;14.93;;;;;;;;;;12846044;19;20334;-65
2023/01/03 19:03:22;;;;;;;27.88;13.63;;;;;;;;;;12842568;19;20494;-66
2023/01/03 19:07:46;;;;;;;19.08;10.25;;;;;;;;;;12839492;19;20280;-65
2023/01/03 19:12:06;;;;;;;21.85;11.18;;;;;;;;;;12843601;19;20381;-65
2023/01/03 19:16:30;;;;;;;16.67;10.25;;;;;;;;;;12844912;19;20010;-66
2023/01/03 19:20:49;;;;;;;24.55;10.13;;;;;;;;;;12842839;19;20007;-66
2023/01/03 19:25:11;;;;;;;;;;;;;;;;;;12844196;19;20339;-65
2023/01/03 19:29:38;;;;;;;21.63;10.35;;;;;;;;;;12843704;19;20221;-65
2023/01/03 19:33:56;;;;;;;22.55;10.63;;;;;;;;;;12843161;19;20368;-65
2023/01/03 19:38:13;;;;;;;25.20;11.85;;;;;;;;;;12841968;19;20355;-65
2023/01/03 19:42:46;;;;;;;21.17;9.20;;;;;;;;;;12842245;19;20470;-65
2023/01/03 19:47:08;;;;;;;20.80;9.98;;;;;;;;;;12840212;19;20356;-66
2023/01/03 19:51:25;;;;;;;19.90;9.38;;;;;;;;;;12840064;19;20392;-65
2023/01/03 19:55:45;;;;;;;23.43;11.27;;;;;;;;;;12842797;19;20399;-66
2023/01/03 20:00:04;;;;;;;20.60;10.50;;;;;;;;;;12841358;19;20508;-66
2023/01/03 20:04:22;;;;;;;26.63;12.10;;;;;;;;;;12839861;19;20011;-65
2023/01/03 20:08:39;;;;;;;73.57;26.92;;;;;;;;;;12840185;19;20313;-65
2023/01/03 20:12:58;;;;;;;52.67;20.63;;;;;;;;;;12840790;19;20445;-65
2023/01/03 20:17:23;;;;;;;50.85;19.65;;;;;;;;;;12839097;19;20343;-65
2023/01/03 20:21:41;;;;;;;47.08;19.30;;;;;;;;;;12839320;19;20054;-66
2023/01/03 20:25:59;;;;;;;37.58;18.52;;;;;;;;;;12840216;19;20476;-66
2023/01/03 20:30:21;;;;;;;47.88;22.30;;;;;;;;;;12839177;19;20006;-66
2023/01/03 20:34:39;;;;;;;41.38;18.55;;;;;;;;;;12840550;19;20307;-66
2023/01/03 20:38:57;;;;;;;36.72;16.88;;;;;;;;;;12837056;19;20426;-65
2023/01/03 20:43:16;;;;;;;37.07;17.97;;;;;;;;;;12838297;19;20443;-65
2023/01/03 20:47:34;;;;;;;34.08;15.73;;;;;;;;;;12839957;19;20010;-65
2023/01/03 20:51:52;;;;;;;27.90;15.68;;;;;;;;;;12839142;19;20434;-65
2023/01/03 20:56:12;;;;;;;37.60;16.58;;;;;;;;;;12838187;19;20010;-66
2023/01/03 21:00:33;;;;;;;33.65;16.92;;;;;;;;;;12837146;19;20442;-65
2023/01/03 21:04:51;;;;;;;47.95;24.55;;;;;;;;;;12839380;19;20300;-65
2023/01/03 21:09:13;;;;;;;52.10;25.45;;;;;;;;;;12837379;19;20036;-66
2023/01/03 21:13:30;;;;;;;58.85;28.40;;;;;;;;;;12838526;19;20350;-65
2023/01/03 21:17:48;;;;;;;56.60;28.52;;;;;;;;;;12837671;19;20011;-67
2023/01/03 21:22:19;;;;;;;64.13;26.85;;;;;;;;;;12836265;19;20434;-65
2023/01/03 21:26:36;;;;;;;59.05;25.45;;;;;;;;;;12836084;19;20379;-66
2023/01/03 21:30:54;;;;;;;43.30;21.25;;;;;;;;;;12835508;19;20368;-65
2023/01/03 21:35:23;;;;;;;43.42;18.77;;;;;;;;;;12836846;19;20010;-66
2023/01/03 21:39:40;;;;;;;43.15;21.02;;;;;;;;;;12837511;19;20508;-65
2023/01/03 21:44:11;;;;;;;57.77;25.10;;;;;;;;;;12833567;19;20367;-65
2023/01/03 21:48:29;;;;;;;68.90;29.48;;;;;;;;;;12834253;19;20784;-65
2023/01/03 21:52:46;;;;;;;54.00;25.57;;;;;;;;;;12836342;19;20505;-65
2023/01/03 21:57:03;;;;;;;59.00;25.33;;;;;;;;;;12834880;19;20444;-65
2023/01/03 22:01:22;;;;;;;49.00;21.63;;;;;;;;;;12833117;19;20323;-64
2023/01/03 22:05:40;;;;;;;51.05;21.73;;;;;;;;;;12835389;19;20469;-65
2023/01/03 22:10:17;;;;;;;57.70;22.57;;;;;;;;;;12835308;19;20036;-70
2023/01/03 22:14:35;;;;;;;55.27;21.57;;;;;;;;;;12832843;19;20749;-65
2023/01/03 22:18:53;;;;;;;49.42;22.02;;;;;;;;;;12836137;19;20307;-65
2023/01/03 22:23:11;;;;;;;52.58;22.33;;;;;;;;;;12833180;19;20334;-65
2023/01/03 22:27:28;;;;;;;59.38;22.75;;;;;;;;;;12834909;19;20376;-65
2023/01/03 22:31:46;;;;;;;55.22;22.52;;;;;;;;;;12834992;19;20363;-65
2023/01/03 22:36:07;;;;;;;62.10;23.20;;;;;;;;;;12833082;19;20411;-68
2023/01/03 22:40:24;;;;;;;51.25;21.10;;;;;;;;;;12838917;19;20006;-64
2023/01/03 22:44:42;;;;;;;46.80;19.35;;;;;;;;;;12846525;19;20430;-65
2023/01/03 22:48:59;;;;;;;41.80;19.27;;;;;;;;;;12845597;19;20006;-67
2023/01/03 22:53:17;;;;;;;41.83;17.77;;;;;;;;;;12846161;19;20367;-65
2023/01/03 22:57:35;;;;;;;72.40;25.53;;;;;;;;;;12845654;19;20465;-65
2023/01/03 23:01:52;;;;;;;56.03;20.65;;;;;;;;;;12844259;19;20438;-67
2023/01/03 23:06:17;;;;;;;48.90;19.40;;;;;;;;;;12845589;19;20348;-65
2023/01/03 23:10:34;;;;;;;52.83;21.00;;;;;;;;;;12842187;19;20438;-65
2023/01/03 23:14:52;;;;;;;44.38;20.33;;;;;;;;;;12844751;19;20360;-65
2023/01/03 23:19:14;;;;;;;78.07;25.48;;;;;;;;;;12841641;19;20377;-67
2023/01/03 23:23:31;;;;;;;37.65;17.25;;;;;;;;;;12843486;19;20298;-64
2023/01/03 23:27:49;;;;;;;44.43;19.17;;;;;;;;;;12841958;19;20388;-65
2023/01/03 23:32:07;;;;;;;45.30;20.85;;;;;;;;;;12845439;19;20619;-66
2023/01/03 23:36:27;;;;;;;125.45;41.13;;;;;;;;;;12844151;19;20465;-65
2023/01/03 23:40:44;;;;;;;182.77;56.05;;;;;;;;;;12842761;19;20341;-64
2023/01/03 23:45:03;;;;;;;70.45;27.63;;;;;;;;;;12842983;19;20509;-65
2023/01/03 23:49:20;;;;;;;159.57;46.20;;;;;;;;;;12842605;19;20504;-64
2023/01/03 23:53:41;;;;;;;107.23;33.83;;;;;;;;;;12841728;19;20306;-65
2023/01/03 23:57:58;;;;;;;68.45;25.85;;;;;;;;;;12841892;19;20595;-65
